Airport View

Enter AWOS ICAO identifier for current METAR.

ex. KFNL

KSUW 251555Z AUTO 30003KT 10SM OVC050 M01/M07 A3039 RMK AO2 T10151074

25 Oct 2020 15:56

Frequency: 120.35

Phone: 715-394-0283

Other Area AWOS: KDYT - KDLH - KCOQ - KOLG

TAF KDLH 251145Z 2512/2612 33004KT P6SM OVC090 FM251700 30005KT 6SM -SHSN OVC035 FM260100 29005KT P6SM BKN070